Time;durP1;ratioP1;P1;durP2;ratioP2;P2;SDS_P1;SDS_P2;PMS_P1;PMS_P2;Temp;Humidity;BMP_temperature;BMP_pressure;BME280_temperature;BME280_humidity;BME280_pressure;Samples;Min_cycle;Max_cycle;Signal;HPM_P1;HPM_P2
2021/06/14 00:01:54;;;;;;;31.63;17.48;;;;;;;16.39;80.41;99238.72;5052738;28;20029;-74
2021/06/14 00:04:19;;;;;;;29.30;16.92;;;;;;;16.07;82.19;99262.44;5051172;28;20037;-73
2021/06/14 00:06:45;;;;;;;28.08;18.98;;;;;;;16.13;81.65;99246.28;5052821;28;20052;-71
2021/06/14 00:09:14;;;;;;;24.52;15.80;;;;;;;16.03;82.01;99250.34;5052178;28;20056;-72
2021/06/14 00:11:40;;;;;;;26.52;18.27;;;;;;;16.14;81.79;99252.41;5053264;28;20045;-71
2021/06/14 00:14:06;;;;;;;30.80;17.60;;;;;;;16.08;81.73;99265.94;5053693;28;20044;-73
2021/06/14 00:16:31;;;;;;;31.85;16.95;;;;;;;16.07;81.71;99257.16;5053023;28;20040;-72
2021/06/14 00:18:57;;;;;;;26.13;18.00;;;;;;;16.14;81.38;99262.97;5053740;28;20044;-71
2021/06/14 00:21:23;;;;;;;25.15;18.85;;;;;;;16.17;81.46;99266.28;5053778;28;20052;-72
2021/06/14 00:23:49;;;;;;;26.83;19.23;;;;;;;16.22;81.09;99276.59;5053361;28;20494;-72
2021/06/14 00:26:15;;;;;;;28.30;21.20;;;;;;;16.22;81.06;99273.94;5052834;28;20159;-72
2021/06/14 00:28:42;;;;;;;30.77;21.55;;;;;;;16.25;80.85;99275.56;5053940;28;20045;-73
2021/06/14 00:31:09;;;;;;;35.97;19.95;;;;;;;16.16;80.98;99285.69;5052763;28;20033;-73
2021/06/14 00:33:35;;;;;;;30.63;21.45;;;;;;;16.16;81.15;99285.69;5051066;28;20047;-71
2021/06/14 00:36:02;;;;;;;35.08;22.55;;;;;;;16.20;80.86;99287.22;5051745;28;20103;-71
2021/06/14 00:38:28;;;;;;;32.70;22.40;;;;;;;16.20;80.72;99287.22;5051920;28;20048;-72
2021/06/14 00:40:54;;;;;;;41.90;31.35;;;;;;;16.13;80.64;99280.56;5050481;28;20047;-71
2021/06/14 00:43:20;;;;;;;42.60;29.80;;;;;;;16.07;80.67;99280.06;5050427;28;20363;-71
2021/06/14 00:45:50;;;;;;;39.80;27.55;;;;;;;16.07;81.00;99295.88;5051373;28;20478;-74
2021/06/14 00:48:16;;;;;;;32.97;22.42;;;;;;;16.09;81.25;99286.09;5048792;28;20037;-72
2021/06/14 00:50:51;;;;;;;43.90;27.42;;;;;;;16.08;81.11;99290.53;5052124;28;20071;-73
2021/06/14 00:53:37;;;;;;;48.13;27.55;;;;;;;16.12;80.81;99288.56;5050255;28;20044;-74
2021/06/14 00:56:23;;;;;;;40.47;28.20;;;;;;;16.07;80.82;99296.75;5052453;28;20098;-73
2021/06/14 00:58:50;;;;;;;33.45;20.98;;;;;;;15.74;82.36;99285.34;5067251;28;20064;-74
2021/06/14 01:01:16;;;;;;;44.67;28.02;;;;;;;15.87;82.22;99289.03;5050630;28;20099;-73
2021/06/14 01:03:43;;;;;;;49.80;32.40;;;;;;;15.86;82.00;99275.00;5051129;28;20456;-73
2021/06/14 01:06:11;;;;;;;43.60;28.80;;;;;;;15.96;81.73;99285.06;5051733;28;20036;-74
2021/06/14 01:08:42;;;;;;;52.10;36.78;;;;;;;16.03;81.30;99289.94;5050524;28;20072;-75
2021/06/14 01:11:35;;;;;;;61.70;38.58;;;;;;;16.12;80.92;99285.94;5049706;28;20135;-74
2021/06/14 01:14:18;;;;;;;46.00;28.98;;;;;;;16.14;80.82;99281.44;5050653;28;20049;-74
2021/06/14 01:16:54;;;;;;;50.85;32.70;;;;;;;16.07;80.75;99282.69;5066697;28;20094;-74
2021/06/14 01:19:30;;;;;;;34.17;23.67;;;;;;;15.86;82.28;99298.75;5050908;28;20559;-72
2021/06/14 01:22:05;;;;;;;44.47;31.17;;;;;;;15.88;82.10;99301.28;5050295;28;20086;-74
2021/06/14 01:24:49;;;;;;;45.63;27.52;;;;;;;15.96;81.69;99295.63;5052205;28;20399;-71
2021/06/14 01:27:35;;;;;;;47.78;34.28;;;;;;;16.04;81.36;99293.41;5051973;28;20088;-74
2021/06/14 01:30:06;;;;;;;53.60;34.40;;;;;;;16.06;80.86;99281.00;5050466;28;20049;-74
2021/06/14 01:32:35;;;;;;;58.42;37.28;;;;;;;16.24;80.01;99289.69;5053157;28;20048;-74
2021/06/14 01:35:01;;;;;;;55.90;34.95;;;;;;;16.23;79.67;99273.00;5051150;28;20131;-74
2021/06/14 01:37:27;;;;;;;53.17;34.35;;;;;;;16.39;79.56;99289.75;5050895;28;20045;-74
2021/06/14 01:39:53;;;;;;;51.05;33.92;;;;;;;16.42;79.29;99283.44;5049829;28;20040;-73
2021/06/14 01:42:20;;;;;;;46.50;31.77;;;;;;;16.52;78.96;99296.03;5050961;28;20080;-73
2021/06/14 01:44:48;;;;;;;44.28;29.27;;;;;;;16.45;78.64;99285.91;5049522;28;20560;-73
2021/06/14 01:47:16;;;;;;;45.30;28.95;;;;;;;16.51;78.82;99288.22;5067899;28;20041;-74
2021/06/14 01:49:42;;;;;;;40.25;27.27;;;;;;;16.61;78.92;99299.94;5049505;28;20033;-73
2021/06/14 01:52:24;;;;;;;36.53;27.50;;;;;;;16.65;78.81;99309.44;5035399;28;20075;-74
2021/06/14 01:54:54;;;;;;;47.42;29.52;;;;;;;16.67;78.61;99310.22;5050039;28;20302;-74
2021/06/14 01:57:31;;;;;;;54.28;29.25;;;;;;;16.62;78.82;99306.94;5034825;28;20091;-73
2021/06/14 02:00:15;;;;;;;39.20;27.42;;;;;;;16.69;78.72;99318.03;5051654;28;20052;-73
2021/06/14 02:02:50;;;;;;;43.65;29.27;;;;;;;16.66;78.56;99305.84;5066058;28;20701;-74
2021/06/14 02:05:47;;;;;;;43.33;29.08;;;;;;;16.81;78.08;99327.91;5042164;28;20472;-73
2021/06/14 02:08:15;;;;;;;41.78;26.00;;;;;;;16.85;78.20;99332.09;5032189;28;20494;-75
2021/06/14 02:10:42;;;;;;;47.38;27.15;;;;;;;16.87;77.71;99332.84;5048788;28;20145;-71
2021/06/14 02:13:09;;;;;;;42.72;26.88;;;;;;;16.82;77.84;99334.91;5050313;28;20044;-73
2021/06/14 02:15:35;;;;;;;40.85;26.60;;;;;;;16.76;77.82;99325.53;5049988;28;20502;-74
2021/06/14 02:18:04;;;;;;;42.53;26.95;;;;;;;16.96;77.59;99344.69;5049878;28;20087;-73
2021/06/14 02:20:31;;;;;;;40.72;27.88;;;;;;;17.09;77.20;99341.28;5033165;28;20037;-75
2021/06/14 02:22:58;;;;;;;43.10;26.88;;;;;;;17.77;75.07;99341.69;5048767;28;20132;-74
2021/06/14 02:25:24;;;;;;;39.10;23.90;;;;;;;18.86;70.25;99332.34;5064969;28;20123;-72
2021/06/14 02:27:54;;;;;;;37.50;26.17;;;;;;;19.60;66.68;99350.44;5065855;28;20453;-71
2021/06/14 02:30:25;;;;;;;32.90;24.00;;;;;;;20.14;65.02;99348.50;5049731;28;20569;-74
2021/06/14 02:32:54;;;;;;;31.65;20.55;;;;;;;21.10;62.67;99359.38;5065513;28;20045;-72
2021/06/14 02:35:22;;;;;;;33.15;24.40;;;;;;;21.77;59.36;99357.88;5050523;28;20045;-73
2021/06/14 02:37:54;;;;;;;34.13;22.70;;;;;;;22.35;57.63;99364.06;5050388;28;20051;-74
2021/06/14 02:40:24;;;;;;;33.95;26.00;;;;;;;22.25;58.57;99379.03;5048926;28;20045;-75
2021/06/14 02:42:50;;;;;;;38.88;28.48;;;;;;;22.46;58.03;99372.06;5065645;28;20124;-72
2021/06/14 02:45:17;;;;;;;41.15;27.67;;;;;;;23.22;56.31;99382.91;5048160;28;20044;-73
2021/06/14 02:47:44;;;;;;;38.20;26.35;;;;;;;23.87;54.19;99382.78;5048083;28;20064;-74
2021/06/14 02:50:11;;;;;;;41.88;27.38;;;;;;;24.23;52.35;99375.28;5048097;28;20047;-72
2021/06/14 02:52:39;;;;;;;37.28;26.08;;;;;;;24.62;50.50;99390.56;5047449;28;20052;-70
2021/06/14 02:55:08;;;;;;;53.35;34.20;;;;;;;24.98;49.88;99391.00;5047568;28;20044;-72
2021/06/14 02:57:35;;;;;;;47.63;33.25;;;;;;;25.49;48.51;99401.53;5064489;28;20047;-70
2021/06/14 03:00:06;;;;;;;54.78;31.58;;;;;;;25.98;47.09;99397.00;5047664;28;20495;-70
2021/06/14 03:02:35;;;;;;;39.75;28.77;;;;;;;26.33;45.72;99393.75;5047769;28;20079;-73
2021/06/14 03:05:02;;;;;;;38.38;27.08;;;;;;;26.69;45.09;99397.41;5047133;28;20037;-73
2021/06/14 03:07:28;;;;;;;38.13;29.90;;;;;;;26.80;45.09;99399.94;5062410;28;20049;-69
2021/06/14 03:09:54;;;;;;;36.10;28.77;;;;;;;26.42;45.19;99410.78;5048158;28;20053;-71
2021/06/14 03:12:21;;;;;;;49.58;26.95;;;;;;;26.61;45.47;99400.00;5048087;28;20055;-72
2021/06/14 03:14:49;;;;;;;52.25;27.05;;;;;;;27.33;43.93;99401.91;5030772;28;20052;-73
2021/06/14 03:17:15;;;;;;;35.13;25.83;;;;;;;26.92;43.78;99414.00;5047005;28;20045;-73
2021/06/14 03:19:46;;;;;;;36.33;24.77;;;;;;;27.75;41.92;99412.09;5047216;28;20501;-70
2021/06/14 03:22:12;;;;;;;29.08;22.92;;;;;;;28.53;40.63;99415.72;5030263;28;20552;-75
2021/06/14 03:24:39;;;;;;;31.92;20.17;;;;;;;29.17;39.89;99416.22;5049548;28;20127;-71
2021/06/14 03:27:06;;;;;;;32.65;21.33;;;;;;;29.68;38.25;99405.22;5047821;28;20044;-75
2021/06/14 03:29:32;;;;;;;37.97;22.08;;;;;;;30.16;37.07;99410.84;5049479;28;20414;-72
2021/06/14 03:31:59;;;;;;;36.15;19.38;;;;;;;30.51;36.10;99418.56;5048874;28;20091;-73
2021/06/14 03:34:27;;;;;;;13.27;9.52;;;;;;;30.34;35.03;99416.88;5031144;28;20170;-75
2021/06/14 03:36:53;;;;;;;30.38;14.43;;;;;;;30.25;36.02;99423.31;5033940;28;20040;-74
2021/06/14 03:39:20;;;;;;;20.55;12.77;;;;;;;30.80;35.24;99426.09;5068641;28;20045;-73
2021/06/14 03:41:47;;;;;;;12.20;7.15;;;;;;;30.86;33.57;99421.84;5053631;28;20040;-74
2021/06/14 03:44:15;;;;;;;14.02;7.43;;;;;;;29.38;36.63;99403.97;5054497;28;20103;-73
2021/06/14 03:46:41;;;;;;;15.10;7.43;;;;;;;30.33;35.20;99417.88;5053538;28;20482;-74
2021/06/14 03:49:07;;;;;;;8.85;7.57;;;;;;;30.74;34.69;99420.53;5053576;28;20071;-72
2021/06/14 03:51:34;;;;;;;12.43;8.05;;;;;;;31.08;34.21;99431.88;5051530;28;20043;-73
2021/06/14 03:54:00;;;;;;;12.50;6.90;;;;;;;31.02;34.13;99435.28;5052610;28;20414;-72
2021/06/14 03:56:28;;;;;;;8.35;6.80;;;;;;;31.12;33.49;99416.16;5052675;28;20502;-72
2021/06/14 03:58:54;;;;;;;10.35;6.10;;;;;;;31.33;32.94;99429.09;5051526;28;20122;-70
2021/06/14 04:01:21;;;;;;;8.15;6.60;;;;;;;31.96;32.10;99431.56;5051870;28;20036;-73
2021/06/14 04:06:36;;;;;;;10.95;6.32;;;;;;;33.02;30.66;99431.38;5045494;28;20542;-76
2021/06/14 04:09:02;;;;;;;9.38;6.00;;;;;;;33.38;29.92;99430.59;5051818;28;20059;-72
2021/06/14 04:11:28;;;;;;;10.18;6.65;;;;;;;33.64;29.93;99430.06;5051662;28;20052;-71
2021/06/14 04:13:54;;;;;;;7.97;5.32;;;;;;;33.34;29.55;99440.97;5052057;28;20395;-72
2021/06/14 04:16:20;;;;;;;9.45;6.18;;;;;;;33.87;29.53;99428.00;5051554;28;20548;-72
2021/06/14 04:18:46;;;;;;;15.55;5.90;;;;;;;34.05;29.06;99446.53;5049022;28;20514;-72
2021/06/14 04:21:12;;;;;;;6.53;4.95;;;;;;;34.08;28.66;99440.72;5050179;28;20052;-70
2021/06/14 04:23:38;;;;;;;9.50;5.05;;;;;;;34.30;28.16;99446.97;5051304;28;20048;-72
2021/06/14 04:26:04;;;;;;;12.05;5.97;;;;;;;34.08;28.53;99446.16;5052373;28;20406;-73
2021/06/14 04:28:30;;;;;;;6.10;4.43;;;;;;;34.17;28.23;99455.84;5052781;28;20037;-71
2021/06/14 04:30:55;;;;;;;10.68;4.22;;;;;;;34.37;28.44;99440.59;5052669;28;20057;-73
2021/06/14 04:33:21;;;;;;;9.75;4.30;;;;;;;34.84;27.56;99449.06;5068247;28;20045;-72
2021/06/14 04:35:47;;;;;;;10.23;5.55;;;;;;;35.31;27.64;99453.72;5052176;28;20037;-73
2021/06/14 04:38:12;;;;;;;5.85;4.43;;;;;;;35.51;26.47;99451.06;5044410;28;20044;-72
2021/06/14 04:40:38;;;;;;;6.45;4.00;;;;;;;35.70;26.55;99465.81;5052078;28;20053;-72
2021/06/14 04:43:04;;;;;;;6.03;4.13;;;;;;;35.69;27.27;99469.56;5050202;28;20051;-72
2021/06/14 04:45:30;;;;;;;6.70;4.20;;;;;;;36.13;26.31;99464.41;5050829;28;20045;-70
2021/06/14 04:47:56;;;;;;;5.85;3.83;;;;;;;36.07;25.85;99464.41;5049802;28;20043;-71
2021/06/14 04:50:21;;;;;;;4.63;3.45;;;;;;;36.39;25.72;99457.31;5051486;28;20154;-71
2021/06/14 04:52:47;;;;;;;9.27;4.28;;;;;;;35.98;26.54;99461.91;5050384;28;20498;-71
2021/06/14 04:55:13;;;;;;;8.20;3.75;;;;;;;36.34;25.68;99455.22;5050335;28;20048;-68
2021/06/14 04:57:39;;;;;;;5.97;3.80;;;;;;;36.23;25.66;99470.28;5050886;28;20053;-67
2021/06/14 05:00:06;;;;;;;6.35;4.00;;;;;;;35.93;26.27;99469.00;5049529;28;20033;-70
2021/06/14 05:02:33;;;;;;;9.82;4.80;;;;;;;34.54;28.80;99451.16;5050124;28;20442;-71
2021/06/14 05:04:58;;;;;;;6.63;4.95;;;;;;;33.52;30.35;99473.13;5050540;28;20055;-71
2021/06/14 05:07:24;;;;;;;9.27;4.47;;;;;;;33.07;31.21;99468.75;5047813;28;20051;-72
2021/06/14 05:09:52;;;;;;;8.43;5.15;;;;;;;33.44;30.18;99463.22;5051336;28;20053;-75
2021/06/14 05:12:18;;;;;;;7.15;4.65;;;;;;;33.19;30.43;99464.53;5049486;28;20049;-69
2021/06/14 05:14:44;;;;;;;8.63;4.65;;;;;;;34.15;29.08;99478.78;5048289;28;20048;-68
2021/06/14 05:17:10;;;;;;;5.38;4.80;;;;;;;34.61;28.24;99473.78;5048440;28;20045;-70
2021/06/14 05:19:36;;;;;;;6.05;4.22;;;;;;;34.49;28.53;99480.78;5048614;28;20445;-70
2021/06/14 05:22:04;;;;;;;8.10;4.43;;;;;;;34.84;27.78;99474.38;5030700;28;20086;-73
2021/06/14 05:24:33;;;;;;;7.25;4.45;;;;;;;35.48;27.11;99490.41;5050104;28;20389;-72
2021/06/14 05:26:58;;;;;;;6.90;4.45;;;;;;;35.38;27.32;99497.28;5049081;28;20403;-70
2021/06/14 05:29:24;;;;;;;7.32;4.10;;;;;;;34.89;27.68;99499.06;5066915;28;20067;-73
2021/06/14 05:31:51;;;;;;;12.00;4.70;;;;;;;35.34;27.26;99485.97;5065172;28;20048;-75
2021/06/14 05:34:17;;;;;;;6.88;5.40;;;;;;;33.18;30.72;99488.09;5050518;28;20124;-76
2021/06/14 05:36:43;;;;;;;7.05;5.32;;;;;;;32.74;32.47;99507.03;5050924;28;20174;-70
2021/06/14 05:39:09;;;;;;;6.82;5.18;;;;;;;32.84;31.71;99495.97;5049543;28;20041;-72
2021/06/14 05:41:34;;;;;;;10.70;5.75;;;;;;;33.23;30.95;99492.09;5050279;28;20048;-69
2021/06/14 05:44:00;;;;;;;5.93;5.07;;;;;;;33.31;30.76;99497.47;5050217;28;20048;-69
2021/06/14 05:46:26;;;;;;;9.30;5.55;;;;;;;33.15;30.82;99504.75;5050490;28;20040;-70
2021/06/14 05:48:52;;;;;;;9.15;5.60;;;;;;;32.78;31.96;99512.97;5050217;28;20052;-69
2021/06/14 05:51:18;;;;;;;11.68;5.85;;;;;;;32.46;32.60;99514.91;5048436;28;20044;-69
2021/06/14 05:53:43;;;;;;;8.35;5.78;;;;;;;32.13;33.54;99510.78;5050410;28;20555;-70
2021/06/14 05:56:09;;;;;;;8.75;6.30;;;;;;;32.30;33.69;99520.47;5050320;28;20040;-69
2021/06/14 05:58:35;;;;;;;11.43;5.53;;;;;;;32.39;33.28;99519.38;5048648;28;20060;-73
2021/06/14 06:01:01;;;;;;;10.95;5.50;;;;;;;32.29;32.97;99526.91;5050440;28;20600;-70
2021/06/14 06:03:26;;;;;;;8.73;5.22;;;;;;;31.86;33.62;99522.94;5050268;28;20059;-79
2021/06/14 06:05:52;;;;;;;7.53;5.20;;;;;;;32.15;33.41;99520.38;5049175;28;20140;-69
2021/06/14 06:08:18;;;;;;;8.45;4.47;;;;;;;31.55;33.68;99525.63;5047413;28;20514;-67
2021/06/14 06:10:43;;;;;;;8.85;4.90;;;;;;;32.04;32.82;99519.97;5048342;28;20048;-69
2021/06/14 06:13:09;;;;;;;13.30;4.30;;;;;;;31.90;32.77;99521.56;5048706;28;20052;-68
2021/06/14 06:15:35;;;;;;;6.07;5.00;;;;;;;32.12;32.14;99507.22;5048261;28;20123;-69
2021/06/14 06:18:01;;;;;;;8.75;5.20;;;;;;;32.36;31.74;99508.91;5063544;28;20095;-69
2021/06/14 06:20:27;;;;;;;9.07;4.78;;;;;;;32.64;31.32;99516.44;5048139;28;20136;-69
2021/06/14 06:22:52;;;;;;;12.88;5.00;;;;;;;32.82;31.45;99511.56;5049792;28;20122;-70
2021/06/14 06:25:21;;;;;;;10.73;4.82;;;;;;;33.72;29.86;99514.88;5050393;28;20037;-67
2021/06/14 06:27:47;;;;;;;10.10;4.05;;;;;;;35.60;27.35;99521.44;5050303;28;20033;-68
2021/06/14 06:30:15;;;;;;;9.90;4.38;;;;;;;36.90;24.89;99531.94;5050048;28;20045;-69
2021/06/14 06:32:41;;;;;;;5.70;3.83;;;;;;;37.51;23.89;99519.84;5049211;28;20040;-69
2021/06/14 06:35:07;;;;;;;6.53;3.67;;;;;;;36.62;24.95;99523.16;5050386;28;20059;-68
2021/06/14 06:37:33;;;;;;;6.20;3.83;;;;;;;35.85;25.95;99538.13;5032213;28;20140;-69
2021/06/14 06:39:59;;;;;;;7.88;3.50;;;;;;;35.10;26.67;99540.84;5049928;28;20123;-70
2021/06/14 06:42:25;;;;;;;9.00;3.63;;;;;;;34.37;27.72;99532.94;5050358;28;20045;-68
2021/06/14 06:44:51;;;;;;;8.15;3.78;;;;;;;34.36;28.16;99541.28;5050120;28;20053;-70
2021/06/14 06:47:17;;;;;;;5.68;3.65;;;;;;;35.67;26.69;99529.63;5049118;28;20457;-69
2021/06/14 06:49:43;;;;;;;6.63;3.90;;;;;;;35.23;26.47;99539.03;5050386;28;20036;-68
2021/06/14 06:52:11;;;;;;;9.20;3.30;;;;;;;34.54;26.92;99533.50;5048430;28;20087;-69
2021/06/14 06:54:37;;;;;;;3.72;2.90;;;;;;;34.67;26.72;99539.03;5048900;28;20044;-69
2021/06/14 06:57:03;;;;;;;3.40;3.20;;;;;;;34.39;26.89;99530.88;5049801;28;20044;-70
2021/06/14 06:59:30;;;;;;;4.35;3.15;;;;;;;34.28;27.06;99538.69;5049031;28;20043;-68
2021/06/14 07:01:56;;;;;;;5.50;3.70;;;;;;;34.02;28.03;99529.22;5050236;28;20049;-69
2021/06/14 07:04:22;;;;;;;3.75;3.13;;;;;;;35.95;25.64;99544.00;5049864;28;20037;-70
2021/06/14 07:06:47;;;;;;;6.97;3.30;;;;;;;37.22;23.92;99543.03;5050040;28;20049;-68
2021/06/14 07:09:14;;;;;;;3.13;2.80;;;;;;;35.10;25.89;99543.56;5050281;28;20053;-70
2021/06/14 07:11:40;;;;;;;5.82;3.42;;;;;;;34.89;26.22;99553.44;5067746;28;20105;-69
2021/06/14 07:14:06;;;;;;;5.00;3.08;;;;;;;34.36;26.47;99547.56;5069547;28;20044;-69
2021/06/14 07:16:33;;;;;;;3.22;2.92;;;;;;;33.99;27.26;99555.91;5054258;28;20037;-71
2021/06/14 07:19:00;;;;;;;3.47;2.92;;;;;;;34.03;26.67;99547.19;5054042;28;20048;-70
2021/06/14 07:21:27;;;;;;;9.38;2.72;;;;;;;33.77;26.33;99547.72;5036052;28;20128;-71
2021/06/14 07:23:53;;;;;;;4.10;2.95;;;;;;;33.63;27.45;99555.88;5052417;28;20047;-69
2021/06/14 07:26:19;;;;;;;3.05;2.85;;;;;;;34.15;26.91;99549.38;5053512;28;20509;-70
2021/06/14 07:28:45;;;;;;;4.72;3.08;;;;;;;33.98;27.73;99554.22;5069113;28;20049;-70
2021/06/14 07:31:11;;;;;;;6.95;3.45;;;;;;;33.87;27.90;99558.28;5053977;28;20068;-69
2021/06/14 07:33:38;;;;;;;3.83;2.90;;;;;;;33.25;28.48;99557.84;5053926;28;20076;-69
2021/06/14 07:36:05;;;;;;;3.47;3.00;;;;;;;33.38;28.29;99558.03;5036131;28;20054;-69
2021/06/14 07:38:31;;;;;;;4.25;3.08;;;;;;;33.84;27.95;99558.66;5052743;28;20040;-70
2021/06/14 07:40:57;;;;;;;3.33;2.95;;;;;;;33.78;28.11;99565.66;5052351;28;20561;-69
2021/06/14 07:43:23;;;;;;;5.07;2.80;;;;;;;33.37;28.41;99553.66;5053113;28;20462;-70
2021/06/14 07:45:49;;;;;;;4.03;3.00;;;;;;;32.99;29.50;99559.13;5053411;28;20079;-69
2021/06/14 07:48:16;;;;;;;4.32;3.10;;;;;;;32.85;29.73;99562.69;5053069;28;20068;-71
2021/06/14 07:50:43;;;;;;;4.05;2.97;;;;;;;33.72;28.31;99563.72;5051940;28;20510;-70
2021/06/14 07:53:08;;;;;;;3.35;3.05;;;;;;;33.70;28.92;99560.34;5052212;28;20056;-69
2021/06/14 07:55:36;;;;;;;4.13;3.08;;;;;;;33.16;29.37;99566.06;5052713;28;20415;-70
2021/06/14 07:58:03;;;;;;;5.20;2.40;;;;;;;33.13;29.21;99549.31;5052749;28;20045;-71
2021/06/14 08:00:29;;;;;;;3.75;2.88;;;;;;;33.04;28.96;99562.13;5052305;28;20056;-70
2021/06/14 08:02:55;;;;;;;3.50;2.80;;;;;;;32.81;28.95;99570.34;5053340;28;20044;-69
2021/06/14 08:05:21;;;;;;;4.50;3.00;;;;;;;33.22;28.47;99563.63;5053274;28;20082;-70
2021/06/14 08:07:48;;;;;;;6.55;2.70;;;;;;;33.39;28.36;99565.16;5035379;28;20045;-72
2021/06/14 08:10:16;;;;;;;3.97;2.65;;;;;;;33.57;28.87;99576.47;5052041;28;20550;-69
2021/06/14 08:12:50;;;;;;;3.75;2.70;;;;;;;33.64;28.31;99577.41;5053387;28;20114;-69
2021/06/14 08:15:21;;;;;;;2.85;2.63;;;;;;;33.72;27.79;99580.00;5053164;28;20131;-70
2021/06/14 08:17:48;;;;;;;;;;;;;;;33.72;27.19;99577.28;5053307;28;20098;-68
2021/06/14 08:20:29;;;;;;;8.80;2.63;;;;;;;33.26;27.88;99583.91;5052928;28;19916;-68
2021/06/14 08:25:34;;;;;;;6.82;2.85;;;;;;;32.68;28.65;99588.19;5052789;28;20056;-70
2021/06/14 08:28:00;;;;;;;6.40;2.80;;;;;;;33.68;27.99;99584.13;5068276;28;20060;-69
2021/06/14 08:30:28;;;;;;;4.00;2.75;;;;;;;33.94;27.30;99582.78;5052743;28;20075;-69
2021/06/14 08:32:55;;;;;;;6.95;2.63;;;;;;;33.97;27.71;99587.84;5053136;28;20051;-69
2021/06/14 08:35:23;;;;;;;4.45;2.75;;;;;;;33.60;28.19;99580.69;5052534;28;20413;-69
2021/06/14 08:37:49;;;;;;;5.80;2.67;;;;;;;33.26;29.18;99575.78;5051292;28;20099;-67
2021/06/14 08:40:17;;;;;;;4.20;2.80;;;;;;;33.33;28.61;99595.72;5052681;28;20550;-70
2021/06/14 08:42:44;;;;;;;3.13;2.70;;;;;;;33.65;28.04;99591.81;5052710;28;20045;-69
2021/06/14 08:45:11;;;;;;;4.57;2.95;;;;;;;33.44;28.26;99593.41;5051316;28;20417;-68
2021/06/14 08:47:38;;;;;;;3.63;2.80;;;;;;;33.00;29.42;99579.78;5067718;28;20413;-70
2021/06/14 08:50:06;;;;;;;3.25;2.95;;;;;;;32.22;30.54;99599.00;5050981;28;20048;-68
2021/06/14 08:52:32;;;;;;;3.42;2.72;;;;;;;32.11;30.64;99588.59;5052414;28;20141;-69
2021/06/14 08:54:57;;;;;;;4.68;3.00;;;;;;;31.82;31.42;99576.56;5067558;28;20124;-69
2021/06/14 08:57:23;;;;;;;7.72;3.15;;;;;;;31.92;31.79;99584.44;5052100;28;20094;-69
2021/06/14 08:59:49;;;;;;;4.82;2.42;;;;;;;32.07;31.68;99585.41;5052207;28;20414;-69
2021/06/14 09:02:14;;;;;;;3.53;2.35;;;;;;;31.85;31.89;99588.91;5052000;28;20506;-69
2021/06/14 09:04:40;;;;;;;4.13;2.42;;;;;;;31.09;31.17;99581.34;5052010;28;20043;-68
2021/06/14 09:07:06;;;;;;;9.32;3.03;;;;;;;30.58;32.09;99570.75;5033956;28;20049;-69
2021/06/14 09:09:33;;;;;;;4.72;2.20;;;;;;;30.26;32.30;99592.31;5066997;28;20124;-69
2021/06/14 09:12:01;;;;;;;7.35;2.90;;;;;;;29.89;34.30;99595.41;5051966;28;20059;-70
2021/06/14 09:14:29;;;;;;;4.55;2.33;;;;;;;29.58;34.63;99593.25;5051733;28;20040;-68
2021/06/14 09:16:58;;;;;;;3.85;2.65;;;;;;;29.71;34.65;99595.50;5067366;28;20041;-69
2021/06/14 09:19:29;;;;;;;8.40;3.58;;;;;;;29.06;37.06;99595.16;5050444;28;20044;-71
2021/06/14 09:21:56;;;;;;;3.97;2.67;;;;;;;28.72;37.28;99595.88;5050326;28;20074;-71
2021/06/14 09:24:25;;;;;;;6.70;3.08;;;;;;;28.27;37.09;99579.00;5034119;28;20044;-72
2021/06/14 09:26:52;;;;;;;4.18;3.38;;;;;;;27.94;37.66;99592.06;5052083;28;20127;-72
2021/06/14 09:29:26;;;;;;;3.38;2.53;;;;;;;27.89;38.73;99586.28;5050384;28;20118;-73
2021/06/14 09:32:00;;;;;;;4.00;2.80;;;;;;;27.83;39.61;99586.91;5034069;28;20062;-71
2021/06/14 09:34:37;;;;;;;4.72;2.80;;;;;;;27.57;39.71;99585.88;5050395;28;20640;-69
2021/06/14 09:37:07;;;;;;;3.72;3.00;;;;;;;27.31;40.37;99591.91;5050299;28;20576;-71
2021/06/14 09:39:40;;;;;;;3.17;2.85;;;;;;;27.27;40.55;99589.69;5050132;28;20049;-71
2021/06/14 09:42:15;;;;;;;3.47;2.50;;;;;;;27.32;40.64;99588.25;5049986;28;20071;-71
2021/06/14 09:44:41;;;;;;;2.92;2.72;;;;;;;27.32;40.45;99587.41;5051334;28;20045;-72
2021/06/14 09:47:09;;;;;;;5.15;2.88;;;;;;;27.33;41.12;99584.56;5051232;28;20490;-70
2021/06/14 09:49:35;;;;;;;3.95;3.20;;;;;;;27.16;41.74;99571.91;5050842;28;20041;-71
2021/06/14 09:52:02;;;;;;;5.68;3.28;;;;;;;27.29;40.74;99579.63;5051099;28;20037;-71
2021/06/14 09:54:30;;;;;;;3.13;2.83;;;;;;;27.06;40.92;99574.63;5049843;28;20072;-69
2021/06/14 09:56:57;;;;;;;4.55;3.10;;;;;;;26.94;41.22;99578.44;5050682;28;20754;-70
2021/06/14 09:59:28;;;;;;;6.82;2.70;;;;;;;26.59;41.52;99576.38;5032735;28;20084;-70
2021/06/14 10:02:17;;;;;;;3.53;2.90;;;;;;;26.81;41.88;99570.72;5016797;28;20532;-70
2021/06/14 10:04:52;;;;;;;5.20;2.85;;;;;;;27.06;42.30;99574.63;5049912;28;20114;-70
2021/06/14 10:07:20;;;;;;;3.60;3.30;;;;;;;27.03;42.24;99549.91;5049780;28;20045;-69
2021/06/14 10:09:51;;;;;;;5.75;2.80;;;;;;;27.17;40.59;99562.84;5050899;28;20057;-70
2021/06/14 10:12:25;;;;;;;4.30;3.10;;;;;;;27.13;41.06;99564.16;5050818;28;20059;-68
2021/06/14 10:14:56;;;;;;;3.63;2.75;;;;;;;27.02;41.26;99565.16;5049581;28;20049;-70
2021/06/14 10:17:35;;;;;;;4.90;3.08;;;;;;;27.15;41.16;99573.75;5051579;28;20127;-70
2021/06/14 10:20:31;;;;;;;3.00;2.80;;;;;;;26.97;40.18;99558.50;5051183;28;20131;-69
2021/06/14 10:22:58;;;;;;;9.27;6.15;;;;;;;27.12;39.97;99559.75;5016046;28;20041;-69
2021/06/14 10:25:26;;;;;;;3.15;2.90;;;;;;;27.05;40.02;99554.13;5049389;28;20048;-68
2021/06/14 10:27:53;;;;;;;3.53;3.15;;;;;;;27.01;40.58;99551.91;5049489;28;20072;-68
2021/06/14 10:30:20;;;;;;;3.60;3.30;;;;;;;26.96;39.96;99552.31;5016413;28;20482;-69
2021/06/14 10:32:47;;;;;;;6.70;2.63;;;;;;;27.23;40.28;99559.59;5049590;28;20071;-69
2021/06/14 10:35:15;;;;;;;3.75;2.80;;;;;;;27.59;39.75;99562.41;5033233;28;20048;-69
2021/06/14 10:37:55;;;;;;;4.50;2.90;;;;;;;27.79;40.10;99562.16;5049492;28;20120;-71
2021/06/14 10:40:25;;;;;;;6.07;2.80;;;;;;;27.74;39.98;99553.72;5065261;28;20550;-69
2021/06/14 10:42:51;;;;;;;5.20;2.63;;;;;;;27.37;40.76;99542.13;5065213;28;20041;-68
2021/06/14 10:45:19;;;;;;;2.63;2.42;;;;;;;27.42;39.39;99556.81;5048829;28;20043;-71
2021/06/14 10:47:47;;;;;;;2.92;2.30;;;;;;;27.44;38.96;99554.81;5048876;28;20079;-69
2021/06/14 10:50:15;;;;;;;7.30;2.63;;;;;;;27.54;39.51;99558.31;5032468;28;20041;-70
2021/06/14 10:52:43;;;;;;;2.70;2.20;;;;;;;27.46;38.35;99542.06;5048581;28;20088;-69
2021/06/14 10:55:10;;;;;;;4.00;1.98;;;;;;;27.72;37.78;99560.22;5049149;28;20044;-69
2021/06/14 10:57:36;;;;;;;6.28;2.28;;;;;;;27.78;38.21;99546.19;5050338;28;20040;-69
2021/06/14 11:00:05;;;;;;;9.15;2.40;;;;;;;27.59;38.63;99555.19;5032624;28;20640;-69
2021/06/14 11:02:33;;;;;;;6.32;2.40;;;;;;;27.50;38.92;99539.97;5032182;28;20043;-70
2021/06/14 11:05:04;;;;;;;5.45;2.30;;;;;;;27.65;38.76;99551.09;5032562;28;20509;-68
2021/06/14 11:07:31;;;;;;;2.72;2.33;;;;;;;27.59;37.85;99549.81;5048522;28;20122;-68
2021/06/14 11:09:57;;;;;;;3.28;2.40;;;;;;;27.66;38.08;99550.09;5048370;28;20506;-68
2021/06/14 11:12:27;;;;;;;3.15;2.45;;;;;;;27.71;38.00;99550.47;5065523;28;20053;-69
2021/06/14 11:14:53;;;;;;;5.95;2.30;;;;;;;27.63;38.15;99542.31;5050241;28;20585;-69
2021/06/14 11:17:36;;;;;;;3.70;1.98;;;;;;;27.34;38.02;99548.66;5049080;28;20135;-68
2021/06/14 11:20:02;;;;;;;2.60;2.40;;;;;;;27.21;38.23;99542.75;5050204;28;20153;-67
2021/06/14 11:22:44;;;;;;;2.78;2.45;;;;;;;27.21;38.31;99543.63;5048953;28;20049;-69
2021/06/14 11:25:30;;;;;;;2.30;2.10;;;;;;;27.21;38.43;99530.19;5050414;28;20047;-68
2021/06/14 11:27:58;;;;;;;2.83;2.47;;;;;;;27.46;38.54;99536.69;5050491;28;20052;-69
2021/06/14 11:30:31;;;;;;;6.28;2.97;;;;;;;27.70;38.25;99543.41;5048971;28;20041;-68
2021/06/14 11:32:57;;;;;;;7.07;2.45;;;;;;;27.92;38.38;99548.34;5049919;28;20044;-67
2021/06/14 11:35:24;;;;;;;8.27;2.90;;;;;;;28.11;37.63;99540.13;5049045;28;20052;-69
2021/06/14 11:37:51;;;;;;;2.20;2.05;;;;;;;28.10;36.74;99535.75;5065436;28;20191;-68